createdAt,value
2018-07-05T00:02:01.126Z,4.87
2018-07-05T00:04:40.822Z,4.43
2018-07-05T00:07:20.404Z,4.57
2018-07-05T00:10:00.144Z,4.03
2018-07-05T00:12:39.794Z,4.17
2018-07-05T00:15:19.453Z,4.10
2018-07-05T00:17:59.044Z,4.23
2018-07-05T00:20:38.603Z,4.07
2018-07-05T00:23:18.357Z,4.57
2018-07-05T00:25:57.957Z,5.03
2018-07-05T00:28:37.602Z,5.30
2018-07-05T00:31:17.290Z,5.03
2018-07-05T00:33:57.092Z,5.13
2018-07-05T00:36:36.732Z,4.90
2018-07-05T00:39:16.440Z,5.23
2018-07-05T00:41:56.160Z,4.70
2018-07-05T00:44:35.776Z,5.70
2018-07-05T00:47:15.538Z,5.20
2018-07-05T00:49:55.609Z,5.33
2018-07-05T00:52:35.366Z,5.07
2018-07-05T00:55:15.139Z,5.03
2018-07-05T00:57:54.888Z,4.70
2018-07-05T01:00:34.814Z,5.17
2018-07-05T01:03:14.412Z,4.80
2018-07-05T01:05:54.178Z,5.37
2018-07-05T01:08:33.884Z,5.27
2018-07-05T01:11:13.593Z,5.17
2018-07-05T01:13:53.149Z,5.30
2018-07-05T01:16:32.672Z,5.00
2018-07-05T01:19:12.257Z,4.60
2018-07-05T01:21:51.922Z,4.67
2018-07-05T01:24:31.816Z,4.87
2018-07-05T01:27:11.497Z,4.93
2018-07-05T01:29:51.079Z,4.87
2018-07-05T01:32:30.687Z,5.07
2018-07-05T01:35:10.277Z,5.13
2018-07-05T01:37:49.936Z,4.97
2018-07-05T01:40:29.633Z,5.40
2018-07-05T01:43:09.454Z,5.00
2018-07-05T01:45:49.183Z,4.80
2018-07-05T01:48:28.831Z,5.17
2018-07-05T01:51:08.489Z,5.23
2018-07-05T01:53:48.238Z,5.53
2018-07-05T01:56:27.928Z,5.30
2018-07-05T01:59:07.433Z,5.70
2018-07-05T02:01:47.033Z,5.43
2018-07-05T02:04:26.677Z,5.83
2018-07-05T02:07:06.330Z,5.37
2018-07-05T02:09:45.953Z,5.67
2018-07-05T02:12:25.598Z,5.73
2018-07-05T02:15:05.241Z,5.40
2018-07-05T02:17:44.894Z,5.00
2018-07-05T02:20:24.528Z,5.17
2018-07-05T02:23:04.298Z,6.20
2018-07-05T02:25:44.024Z,5.73
2018-07-05T02:28:23.630Z,5.27
2018-07-05T02:31:03.425Z,5.10
2018-07-05T02:33:45.460Z,5.67
2018-07-05T02:36:25.141Z,5.27
2018-07-05T02:39:10.009Z,6.10
2018-07-05T02:41:49.674Z,5.77
2018-07-05T02:44:29.264Z,5.77
2018-07-05T02:47:08.883Z,5.47
2018-07-05T02:49:48.497Z,5.60
2018-07-05T02:52:28.222Z,5.83
2018-07-05T02:55:07.864Z,5.93
2018-07-05T02:57:47.964Z,6.00
2018-07-05T03:00:27.676Z,6.40
2018-07-05T03:03:07.288Z,6.70
2018-07-05T03:05:46.990Z,6.00
2018-07-05T03:08:26.915Z,6.07
2018-07-05T03:11:00.692Z,6.70
2018-07-05T03:13:40.285Z,6.40
2018-07-05T03:16:20.021Z,6.20
2018-07-05T03:18:59.840Z,6.67
2018-07-05T03:21:39.485Z,6.07
2018-07-05T03:24:19.257Z,6.57
2018-07-05T03:26:58.965Z,7.27
2018-07-05T03:29:38.648Z,6.47
2018-07-05T03:32:18.186Z,6.40
2018-07-05T03:34:57.986Z,7.20
2018-07-05T03:37:37.798Z,6.03
2018-07-05T03:40:17.411Z,6.77
2018-07-05T03:42:51.243Z,6.57
2018-07-05T03:45:30.922Z,7.00
2018-07-05T03:48:10.571Z,7.10
2018-07-05T03:50:50.337Z,7.57
2018-07-05T03:53:29.953Z,7.50
2018-07-05T03:56:09.577Z,7.33
2018-07-05T03:58:49.257Z,7.57
2018-07-05T04:01:28.823Z,7.97
2018-07-05T04:04:08.444Z,7.70
2018-07-05T04:06:48.166Z,7.40
2018-07-05T04:09:27.924Z,7.80
2018-07-05T04:12:07.660Z,7.50
2018-07-05T04:14:47.363Z,7.00
2018-07-05T04:17:27.092Z,7.13
2018-07-05T04:20:06.746Z,6.63
2018-07-05T04:22:46.366Z,7.20
2018-07-05T04:25:26.096Z,7.60
2018-07-05T04:28:05.784Z,7.40
2018-07-05T04:30:45.604Z,7.10
2018-07-05T04:33:25.290Z,7.50
2018-07-05T04:36:05.042Z,8.07
2018-07-05T04:38:44.597Z,8.13
2018-07-05T04:41:24.219Z,8.73
2018-07-05T04:44:03.885Z,8.73
2018-07-05T04:46:43.513Z,8.23
2018-07-05T04:49:23.236Z,8.63
2018-07-05T04:52:03.006Z,8.43
2018-07-05T04:54:42.800Z,8.03
2018-07-05T04:57:22.422Z,9.00
2018-07-05T05:00:02.280Z,7.57
2018-07-05T05:02:41.892Z,8.50
2018-07-05T05:05:21.552Z,7.63
2018-07-05T05:08:01.078Z,7.33
2018-07-05T05:10:40.718Z,7.27
2018-07-05T05:13:20.344Z,7.10
2018-07-05T05:15:59.913Z,7.10
2018-07-05T05:18:39.540Z,6.93
2018-07-05T05:21:19.263Z,6.63
2018-07-05T05:23:58.828Z,6.57
2018-07-05T05:26:38.463Z,7.22
2018-07-05T05:29:17.989Z,7.08
2018-07-05T05:31:57.563Z,7.12
2018-07-05T05:34:37.278Z,6.45
2018-07-05T05:37:17.050Z,6.97
2018-07-05T05:39:56.815Z,7.12
2018-07-05T05:42:36.456Z,7.22
2018-07-05T05:45:16.052Z,6.80
2018-07-05T05:47:55.777Z,6.30
2018-07-05T05:50:35.515Z,6.35
2018-07-05T05:53:15.128Z,6.50
2018-07-05T05:55:54.766Z,6.45
2018-07-05T05:58:34.354Z,6.58
2018-07-05T06:01:14.003Z,5.50
2018-07-05T06:03:53.646Z,5.70
2018-07-05T06:06:33.348Z,4.83
2018-07-05T06:09:13.122Z,4.90
2018-07-05T06:11:52.784Z,4.20
2018-07-05T06:14:32.540Z,4.05
2018-07-05T06:17:06.108Z,3.70
2018-07-05T06:19:45.684Z,3.10
2018-07-05T06:22:25.327Z,3.27
2018-07-05T06:25:05.035Z,3.52
2018-07-05T06:27:44.806Z,3.20
2018-07-05T06:30:24.606Z,3.50
2018-07-05T06:33:04.398Z,3.33
2018-07-05T06:35:44.147Z,3.10
2018-07-05T06:38:23.755Z,3.02
2018-07-05T06:41:03.408Z,3.02
2018-07-05T06:43:43.159Z,2.95
2018-07-05T06:46:22.752Z,3.20
2018-07-05T06:49:02.423Z,2.83
2018-07-05T06:51:42.092Z,2.92
2018-07-05T06:54:21.785Z,2.70
2018-07-05T06:57:01.353Z,3.17
2018-07-05T06:59:41.031Z,2.90
2018-07-05T07:02:20.657Z,3.30
2018-07-05T07:05:00.601Z,3.90
2018-07-05T07:07:40.241Z,2.72
2018-07-05T07:10:19.942Z,2.77
2018-07-05T07:12:59.530Z,2.90
2018-07-05T07:15:39.190Z,2.62
2018-07-05T07:18:18.937Z,2.83
2018-07-05T07:20:58.625Z,2.70
2018-07-05T07:23:38.333Z,2.12
2018-07-05T07:26:17.988Z,2.58
2018-07-05T07:28:57.668Z,2.70
2018-07-05T07:31:37.428Z,2.77
2018-07-05T07:34:17.007Z,2.60
2018-07-05T07:36:56.684Z,2.50
2018-07-05T07:39:36.348Z,2.55
2018-07-05T07:42:03.658Z,2.33
2018-07-05T07:44:30.973Z,2.85
2018-07-05T07:46:58.274Z,2.50
2018-07-05T07:49:25.540Z,1.82
2018-07-05T07:51:52.851Z,1.90
2018-07-05T07:54:20.138Z,2.33
2018-07-05T07:56:47.450Z,2.52
2018-07-05T07:59:14.743Z,2.10
2018-07-05T08:01:42.045Z,2.10
2018-07-05T08:04:09.334Z,2.55
2018-07-05T08:06:36.618Z,2.12
2018-07-05T08:09:04.475Z,2.40
2018-07-05T08:11:31.760Z,2.33
2018-07-05T08:13:59.048Z,2.60
2018-07-05T08:16:26.633Z,2.40
2018-07-05T08:18:54.014Z,2.33
2018-07-05T08:21:21.315Z,2.65
2018-07-05T08:23:48.623Z,2.40
2018-07-05T08:26:15.902Z,2.65
2018-07-05T08:28:43.225Z,2.55
2018-07-05T08:31:10.532Z,2.70
2018-07-05T08:33:37.867Z,2.40
2018-07-05T08:36:05.173Z,2.60
2018-07-05T08:38:32.457Z,2.50
2018-07-05T08:40:59.755Z,2.40
2018-07-05T08:46:30.040Z,2.10
2018-07-05T08:48:57.342Z,2.33
2018-07-05T08:51:24.640Z,2.70
2018-07-05T08:53:51.982Z,2.62
2018-07-05T08:56:19.296Z,2.67
2018-07-05T08:58:46.607Z,2.40
2018-07-05T09:01:13.900Z,2.45
2018-07-05T09:03:41.190Z,2.70
2018-07-05T09:06:08.568Z,2.72
2018-07-05T09:08:35.859Z,2.22
2018-07-05T09:11:03.430Z,2.02
2018-07-05T09:13:30.736Z,2.02
2018-07-05T09:15:58.031Z,2.42
2018-07-05T09:18:25.513Z,1.98
2018-07-05T09:20:52.730Z,2.25
2018-07-05T09:23:20.063Z,2.00
2018-07-05T09:25:47.374Z,2.02
2018-07-05T09:28:14.675Z,2.20
2018-07-05T09:30:41.948Z,1.98
2018-07-05T09:33:09.246Z,2.40
2018-07-05T09:35:36.535Z,2.05
2018-07-05T09:38:03.864Z,1.90
2018-07-05T09:40:31.134Z,1.90
2018-07-05T09:42:58.423Z,1.77
2018-07-05T09:45:25.724Z,2.67
2018-07-05T09:47:53.020Z,2.20
2018-07-05T09:50:20.321Z,1.98
2018-07-05T09:52:47.672Z,1.85
2018-07-05T09:55:14.951Z,2.00
2018-07-05T09:57:42.251Z,2.27
2018-07-05T10:00:11.733Z,4.17
2018-07-05T10:02:39.906Z,2.25
2018-07-05T10:05:07.644Z,2.08
2018-07-05T10:07:35.002Z,1.70
2018-07-05T10:10:02.916Z,1.90
2018-07-05T10:12:30.205Z,1.70
2018-07-05T10:14:57.521Z,2.17
2018-07-05T10:17:24.791Z,1.70
2018-07-05T10:19:52.096Z,1.98
2018-07-05T10:22:19.400Z,1.87
2018-07-05T10:24:46.711Z,1.92
2018-07-05T10:27:14.012Z,1.95
2018-07-05T10:29:53.775Z,2.20
2018-07-05T10:32:33.413Z,2.02
2018-07-05T10:35:00.806Z,2.00
2018-07-05T10:37:28.071Z,1.85
2018-07-05T10:40:07.727Z,2.22
2018-07-05T10:42:47.347Z,1.57
2018-07-05T10:45:27.002Z,4.45
2018-07-05T10:48:06.700Z,1.82
2018-07-05T10:50:46.418Z,1.77
2018-07-05T10:53:26.140Z,1.60
2018-07-05T10:56:05.830Z,1.45
2018-07-05T10:58:45.624Z,1.70
2018-07-05T11:01:25.531Z,1.98
2018-07-05T11:04:05.166Z,1.77
2018-07-05T11:06:44.910Z,1.87
2018-07-05T11:09:24.651Z,1.80
2018-07-05T11:12:04.108Z,1.90
2018-07-05T11:14:43.792Z,2.45
2018-07-05T11:17:23.350Z,2.20
2018-07-05T11:20:02.918Z,2.30
2018-07-05T11:22:42.654Z,2.70
2018-07-05T11:25:22.547Z,2.30
2018-07-05T11:28:02.388Z,1.90
2018-07-05T11:30:42.056Z,1.82
2018-07-05T11:33:21.732Z,1.60
2018-07-05T11:36:01.452Z,1.60
2018-07-05T11:38:41.140Z,2.08
2018-07-05T11:41:20.881Z,1.90
2018-07-05T11:44:00.524Z,2.00
2018-07-05T11:46:40.197Z,1.75
2018-07-05T11:49:19.829Z,2.08
2018-07-05T11:51:59.515Z,1.95
2018-07-05T11:54:39.190Z,2.22
2018-07-05T11:57:18.914Z,2.00
2018-07-05T11:59:58.559Z,2.10
2018-07-05T12:02:38.228Z,2.00
2018-07-05T12:05:17.856Z,1.72
2018-07-05T12:07:57.506Z,2.35
2018-07-05T12:10:37.251Z,2.37
2018-07-05T12:13:17.068Z,2.27
2018-07-05T12:15:56.703Z,2.12
2018-07-05T12:18:36.547Z,2.30
2018-07-05T12:21:16.208Z,2.20
2018-07-05T12:23:55.976Z,2.00
2018-07-05T12:26:35.614Z,2.12
2018-07-05T12:29:15.441Z,1.98
2018-07-05T12:31:55.218Z,2.12
2018-07-05T12:34:35.273Z,2.10
2018-07-05T12:37:16.045Z,2.15
2018-07-05T12:39:55.847Z,2.08
2018-07-05T12:42:35.521Z,2.15
2018-07-05T12:45:15.116Z,2.10
2018-07-05T12:47:54.736Z,1.98
2018-07-05T12:50:34.268Z,2.30
2018-07-05T12:53:14.025Z,2.30
2018-07-05T12:55:53.757Z,2.60
2018-07-05T12:58:33.403Z,2.90
2018-07-05T13:01:13.134Z,2.70
2018-07-05T13:03:52.781Z,2.85
2018-07-05T13:06:32.581Z,3.00
2018-07-05T13:09:12.407Z,2.70
2018-07-05T13:11:52.189Z,2.80
2018-07-05T13:14:31.870Z,2.35
2018-07-05T13:17:11.612Z,2.47
2018-07-05T13:19:51.312Z,2.25
2018-07-05T13:22:31.191Z,2.70
2018-07-05T13:25:10.922Z,2.60
2018-07-05T13:27:50.598Z,2.33
2018-07-05T13:30:30.199Z,2.50
2018-07-05T13:33:09.936Z,2.50
2018-07-05T13:35:49.505Z,3.30
2018-07-05T13:38:29.198Z,3.60
2018-07-05T13:41:08.921Z,2.90
2018-07-05T13:43:48.521Z,2.90
2018-07-05T13:46:28.150Z,2.98
2018-07-05T13:49:07.830Z,2.87
2018-07-05T13:51:47.440Z,3.40
2018-07-05T13:54:27.078Z,3.40
2018-07-05T13:57:06.875Z,3.25
2018-07-05T13:59:46.660Z,2.30
2018-07-05T14:02:26.571Z,2.60
2018-07-05T14:05:06.528Z,2.63
2018-07-05T14:07:46.249Z,2.30
2018-07-05T14:10:25.803Z,2.10
2018-07-05T14:13:05.521Z,2.30
2018-07-05T14:15:39.251Z,2.60
2018-07-05T14:18:19.015Z,2.12
2018-07-05T14:20:58.606Z,2.40
2018-07-05T14:23:38.436Z,3.42
2018-07-05T14:26:18.108Z,2.87
2018-07-05T14:28:57.854Z,2.40
2018-07-05T14:31:37.912Z,2.90
2018-07-05T14:34:17.409Z,2.67
2018-07-05T14:36:57.119Z,2.87
2018-07-05T14:39:37.165Z,3.42
2018-07-05T14:42:16.765Z,3.02
2018-07-05T14:44:56.546Z,2.20
2018-07-05T14:47:36.087Z,2.20
2018-07-05T14:50:15.519Z,3.10
2018-07-05T14:52:55.381Z,3.10
2018-07-05T14:55:34.942Z,3.72
2018-07-05T14:58:14.593Z,2.72
2018-07-05T15:00:54.366Z,2.33
2018-07-05T15:03:34.072Z,2.90
2018-07-05T15:06:13.712Z,2.83
2018-07-05T15:08:53.422Z,2.98
2018-07-05T15:11:33.052Z,3.20
2018-07-05T15:14:12.981Z,3.17
2018-07-05T15:16:52.756Z,3.35
2018-07-05T15:19:32.302Z,3.67
2018-07-05T15:22:12.082Z,2.90
2018-07-05T15:24:51.710Z,2.62
2018-07-05T15:27:31.399Z,3.83
2018-07-05T15:30:11.130Z,3.12
2018-07-05T15:32:50.915Z,3.75
2018-07-05T15:35:30.719Z,3.20
2018-07-05T15:38:10.433Z,2.70
2018-07-05T15:40:50.104Z,3.20
2018-07-05T15:43:29.784Z,3.10
2018-07-05T15:46:09.492Z,2.75
2018-07-05T15:48:49.135Z,2.08
2018-07-05T15:51:28.870Z,2.27
2018-07-05T15:54:08.441Z,2.70
2018-07-05T15:56:48.119Z,2.83
2018-07-05T15:59:27.726Z,2.45
2018-07-05T16:02:07.413Z,2.42
2018-07-05T16:04:46.993Z,2.00
2018-07-05T16:07:26.534Z,2.40
2018-07-05T16:10:06.224Z,2.85
2018-07-05T16:12:45.831Z,2.12
2018-07-05T16:15:25.481Z,2.33
2018-07-05T16:18:05.100Z,1.82
2018-07-05T16:20:44.986Z,1.72
2018-07-05T16:23:24.719Z,2.08
2018-07-05T16:26:04.498Z,2.00
2018-07-05T16:28:44.283Z,1.70
2018-07-05T16:31:23.980Z,1.67
2018-07-05T16:34:03.867Z,1.72
2018-07-05T16:36:43.546Z,1.80
2018-07-05T16:39:23.180Z,2.50
2018-07-05T16:42:02.893Z,1.82
2018-07-05T16:44:42.544Z,2.50
2018-07-05T16:47:22.176Z,2.50
2018-07-05T16:50:01.868Z,2.92
2018-07-05T16:52:41.425Z,2.75
2018-07-05T16:55:21.091Z,3.50
2018-07-05T16:58:00.748Z,2.85
2018-07-05T17:00:40.481Z,3.37
2018-07-05T17:03:20.155Z,2.60
2018-07-05T17:05:59.807Z,3.52
2018-07-05T17:08:39.449Z,2.90
2018-07-05T17:11:19.071Z,3.10
2018-07-05T17:13:58.768Z,3.00
2018-07-05T17:16:38.449Z,2.80
2018-07-05T17:19:18.151Z,2.95
2018-07-05T17:21:57.835Z,2.83
2018-07-05T17:24:37.567Z,2.50
2018-07-05T17:27:17.326Z,2.37
2018-07-05T17:29:57.134Z,2.35
2018-07-05T17:32:36.866Z,2.40
2018-07-05T17:35:16.632Z,2.42
2018-07-05T17:37:56.380Z,2.37
2018-07-05T17:40:35.899Z,2.55
2018-07-05T17:43:15.485Z,2.60
2018-07-05T17:45:55.293Z,2.60
2018-07-05T17:48:35.028Z,2.87
2018-07-05T17:51:14.922Z,2.70
2018-07-05T17:53:54.718Z,2.92
2018-07-05T17:56:34.338Z,3.37
2018-07-05T17:59:14.089Z,3.42
2018-07-05T18:01:53.646Z,4.10
2018-07-05T18:04:33.404Z,3.70
2018-07-05T18:07:13.165Z,3.60
2018-07-05T18:09:53.019Z,3.80
2018-07-05T18:12:32.749Z,3.90
2018-07-05T18:15:12.482Z,3.77
2018-07-05T18:17:52.142Z,4.30
2018-07-05T18:20:31.937Z,4.30
2018-07-05T18:23:11.516Z,3.80
2018-07-05T18:25:51.246Z,3.90
2018-07-05T18:28:30.991Z,4.15
2018-07-05T18:31:10.638Z,3.92
2018-07-05T18:33:50.440Z,4.00
2018-07-05T18:36:30.244Z,3.90
2018-07-05T18:39:09.987Z,3.80
2018-07-05T18:41:50.036Z,3.80
2018-07-05T18:44:29.899Z,3.60
2018-07-05T18:47:09.865Z,3.72
2018-07-05T18:49:49.617Z,4.20
2018-07-05T18:52:29.331Z,4.27
2018-07-05T18:55:09.356Z,4.10
2018-07-05T18:57:49.145Z,3.90
2018-07-05T19:00:29.120Z,3.77
2018-07-05T19:03:09.380Z,3.93
2018-07-05T19:05:49.346Z,3.40
2018-07-05T19:08:29.548Z,3.50
2018-07-05T19:11:09.398Z,3.70
2018-07-05T19:13:49.292Z,3.50
2018-07-05T19:16:29.397Z,3.80
2018-07-05T19:19:09.064Z,3.70
2018-07-05T19:21:49.124Z,4.13
2018-07-05T19:24:28.895Z,4.07
2018-07-05T19:27:08.901Z,3.70
2018-07-05T19:29:48.827Z,3.67
2018-07-05T19:32:28.490Z,3.37
2018-07-05T19:35:02.444Z,4.20
2018-07-05T19:37:42.345Z,3.97
2018-07-05T19:40:22.106Z,4.10
2018-07-05T19:43:02.082Z,3.77
2018-07-05T19:45:41.911Z,4.00
2018-07-05T19:48:21.857Z,3.90
2018-07-05T19:51:01.672Z,4.33
2018-07-05T19:53:41.332Z,3.77
2018-07-05T19:56:20.989Z,4.10
2018-07-05T19:58:54.615Z,4.17
2018-07-05T20:01:34.443Z,4.17
2018-07-05T20:04:14.393Z,4.43
2018-07-05T20:06:54.310Z,4.40
2018-07-05T20:09:34.070Z,4.93
2018-07-05T20:12:13.946Z,5.03
2018-07-05T20:14:53.602Z,4.57
2018-07-05T20:17:33.195Z,5.00
2018-07-05T20:20:12.920Z,5.20
2018-07-05T20:22:52.642Z,5.30
2018-07-05T20:25:32.345Z,5.40
2018-07-05T20:28:12.241Z,5.47
2018-07-05T20:30:52.011Z,5.60
2018-07-05T20:33:31.819Z,5.40
2018-07-05T20:36:11.433Z,5.30
2018-07-05T20:38:51.204Z,5.47
2018-07-05T20:41:31.011Z,5.20
2018-07-05T20:44:10.730Z,5.13
2018-07-05T20:46:50.554Z,4.60
2018-07-05T20:49:30.221Z,5.43
2018-07-05T20:52:09.927Z,5.03
2018-07-05T20:54:49.582Z,4.83
2018-07-05T20:57:29.230Z,4.87
2018-07-05T21:00:08.882Z,4.80
2018-07-05T21:02:48.528Z,4.50
2018-07-05T21:05:28.296Z,4.90
2018-07-05T21:08:08.180Z,5.77
2018-07-05T21:10:48.052Z,4.93
2018-07-05T21:13:27.767Z,5.30
2018-07-05T21:16:07.286Z,5.83
2018-07-05T21:18:47.055Z,4.77
2018-07-05T21:21:26.729Z,5.50
2018-07-05T21:24:06.440Z,4.80
2018-07-05T21:26:46.065Z,4.87
2018-07-05T21:29:25.825Z,4.90
2018-07-05T21:32:05.552Z,4.33
2018-07-05T21:34:45.116Z,4.50
2018-07-05T21:37:24.797Z,4.87
2018-07-05T21:40:05.138Z,4.53
2018-07-05T21:42:44.823Z,4.83
2018-07-05T21:45:24.504Z,5.20
2018-07-05T21:48:04.133Z,5.40
2018-07-05T21:50:43.736Z,4.80
2018-07-05T21:53:23.451Z,5.03
2018-07-05T21:56:03.335Z,4.70
2018-07-05T21:58:42.976Z,4.97
2018-07-05T22:01:22.704Z,4.67
2018-07-05T22:04:02.404Z,5.23
2018-07-05T22:06:42.024Z,5.37
2018-07-05T22:09:21.629Z,4.83
2018-07-05T22:12:01.287Z,5.00
2018-07-05T22:14:40.901Z,5.20
2018-07-05T22:17:26.035Z,4.70
2018-07-05T22:20:11.176Z,5.43
2018-07-05T22:22:56.282Z,5.63
2018-07-05T22:26:40.858Z,5.87
2018-07-05T22:29:25.963Z,5.37
2018-07-05T22:32:05.606Z,5.30
2018-07-05T22:34:45.446Z,6.00
2018-07-05T22:37:25.143Z,6.03
2018-07-05T22:40:04.922Z,6.37
2018-07-05T22:42:44.533Z,6.07
2018-07-05T22:45:24.311Z,6.30
2018-07-05T22:48:04.039Z,6.20
2018-07-05T22:50:43.841Z,5.70
2018-07-05T22:53:23.486Z,7.13
2018-07-05T22:56:03.113Z,5.73
2018-07-05T22:58:42.770Z,5.97
2018-07-05T23:01:22.356Z,6.37
2018-07-05T23:04:01.910Z,6.00
2018-07-05T23:06:41.582Z,5.97
2018-07-05T23:09:21.353Z,5.73
2018-07-05T23:12:01.012Z,5.73
2018-07-05T23:14:40.672Z,5.90
2018-07-05T23:17:20.431Z,5.20
2018-07-05T23:20:00.161Z,5.70
2018-07-05T23:22:39.775Z,6.20
2018-07-05T23:25:19.506Z,5.77
2018-07-05T23:27:59.121Z,6.47
2018-07-05T23:30:38.978Z,6.30
2018-07-05T23:33:18.606Z,5.77
2018-07-05T23:35:58.503Z,6.37
2018-07-05T23:38:38.091Z,6.70
2018-07-05T23:41:17.723Z,6.37
2018-07-05T23:43:57.345Z,6.70
2018-07-05T23:46:37.023Z,6.40
2018-07-05T23:49:16.594Z,7.03
2018-07-05T23:51:56.218Z,6.40
2018-07-05T23:54:35.804Z,7.07
2018-07-05T23:57:15.617Z,7.23
2018-07-05T23:59:55.266Z,6.80
